Time;durP1;ratioP1;P1;durP2;ratioP2;P2;SDS_P1;SDS_P2;PMS_P1;PMS_P2;Temp;Humidity;BMP_temperature;BMP_pressure;BME280_temperature;BME280_humidity;BME280_pressure;Samples;Min_cycle;Max_cycle;Signal;HPM_P1;HPM_P2
2022/05/11 00:01:46;;;;;;;11.32;6.78;;;13.50;99.90;;;;;;5026985;28;20071;-79
2022/05/11 00:04:12;;;;;;;10.25;5.93;;;13.60;99.90;;;;;;5026751;28;20080;-80
2022/05/11 00:06:39;;;;;;;10.23;7.22;;;13.60;99.90;;;;;;5026520;28;20060;-79
2022/05/11 00:09:07;;;;;;;9.38;6.47;;;13.60;99.90;;;;;;5009076;28;20061;-79
2022/05/11 00:11:33;;;;;;;13.27;7.88;;;13.50;99.90;;;;;;5008826;28;20047;-79
2022/05/11 00:13:59;;;;;;;14.82;8.18;;;13.60;99.90;;;;;;5042026;28;20216;-79
2022/05/11 00:16:27;;;;;;;14.73;8.65;;;13.60;99.90;;;;;;5026430;28;20042;-79
2022/05/11 00:18:53;;;;;;;8.98;7.97;;;13.60;99.90;;;;;;5025869;28;20476;-79
2022/05/11 00:21:19;;;;;;;14.27;7.70;;;13.60;99.90;;;;;;4991225;28;20099;-79
2022/05/11 00:23:44;;;;;;;10.43;7.70;;;13.60;99.90;;;;;;5026685;28;20476;-79
2022/05/11 00:26:10;;;;;;;15.73;7.07;;;13.60;99.90;;;;;;5026587;28;20474;-79
2022/05/11 00:28:36;;;;;;;17.90;8.35;;;13.60;99.90;;;;;;5026668;28;20034;-79
2022/05/11 00:31:02;;;;;;;7.05;5.68;;;13.60;99.90;;;;;;5026450;28;20041;-80
2022/05/11 00:33:28;;;;;;;10.88;6.88;;;13.60;99.90;;;;;;5009416;28;20471;-79
2022/05/11 00:35:54;;;;;;;8.98;6.43;;;13.60;99.90;;;;;;5025358;28;20037;-79
2022/05/11 00:38:22;;;;;;;6.40;5.55;;;13.70;99.90;;;;;;5026856;28;20485;-79
2022/05/11 00:40:50;;;;;;;19.00;7.78;;;13.70;99.90;;;;;;5041507;28;20480;-79
2022/05/11 00:43:32;;;;;;;9.95;7.32;;;13.70;99.90;;;;;;5026049;28;20092;-79
2022/05/11 00:46:21;;;;;;;11.63;6.65;;;13.60;99.90;;;;;;5022061;28;20500;-79
2022/05/11 00:51:42;;;;;;;11.50;6.43;;;13.60;99.90;;;;;;5005640;28;20409;-79
2022/05/11 00:54:08;;;;;;;14.93;7.50;;;13.60;99.90;;;;;;5006206;28;20100;-79
2022/05/11 00:56:38;;;;;;;9.15;7.03;;;13.60;99.90;;;;;;5007138;28;20073;-79
2022/05/11 00:59:11;;;;;;;9.27;5.97;;;13.60;99.90;;;;;;4988515;28;20280;-80
2022/05/11 01:01:39;;;;;;;8.43;6.95;;;13.60;99.90;;;;;;5006414;28;20042;-79
2022/05/11 01:04:12;;;;;;;16.02;6.30;;;13.60;99.90;;;;;;4988119;28;20054;-80
2022/05/11 01:06:40;;;;;;;11.70;6.45;;;13.60;99.90;;;;;;5005636;28;20294;-79
2022/05/11 01:09:06;;;;;;;10.88;7.38;;;13.60;99.90;;;;;;5005874;28;20049;-79
2022/05/11 01:11:56;;;;;;;11.50;6.35;;;13.60;99.90;;;;;;5006087;28;20042;-80
2022/05/11 01:14:25;;;;;;;10.77;5.70;;;13.60;99.90;;;;;;5005119;28;20097;-80
2022/05/11 01:16:50;;;;;;;24.63;7.45;;;13.60;99.90;;;;;;5008791;28;20038;-79
2022/05/11 01:19:31;;;;;;;16.30;6.40;;;13.60;99.90;;;;;;5025987;28;20404;-80
2022/05/11 01:22:21;;;;;;;13.90;6.28;;;13.50;99.90;;;;;;5040725;28;20042;-80
2022/05/11 01:24:48;;;;;;;8.90;6.65;;;13.60;99.90;;;;;;5007962;28;20045;-79
2022/05/11 01:27:42;;;;;;;7.47;5.40;;;13.60;99.90;;;;;;5025513;28;20265;-79
2022/05/11 01:30:30;;;;;;;14.05;5.82;;;13.60;99.90;;;;;;5025314;28;20527;-80
2022/05/11 01:32:56;;;;;;;10.95;5.60;;;13.50;99.90;;;;;;5007913;28;20053;-79
2022/05/11 01:35:50;;;;;;;9.85;6.18;;;13.50;99.90;;;;;;5039930;28;20404;-80
2022/05/11 01:38:34;;;;;;;15.55;5.80;;;13.50;99.90;;;;;;5024768;28;20518;-79
2022/05/11 01:41:00;;;;;;;15.20;5.95;;;13.50;99.90;;;;;;4991280;28;20132;-79
2022/05/11 01:43:29;;;;;;;11.15;6.03;;;13.50;99.90;;;;;;5008345;28;20142;-79
2022/05/11 01:45:55;;;;;;;7.03;5.28;;;13.50;99.90;;;;;;5024510;28;20113;-80
2022/05/11 01:48:21;;;;;;;11.07;6.40;;;13.40;99.90;;;;;;5024804;28;20057;-79
2022/05/11 01:50:47;;;;;;;13.40;6.78;;;13.50;99.90;;;;;;5024495;28;20041;-79
2022/05/11 01:53:14;;;;;;;11.27;5.63;;;13.40;99.90;;;;;;5024929;28;20148;-79
2022/05/11 01:55:39;;;;;;;13.93;6.68;;;13.40;99.90;;;;;;5007723;28;20048;-79
2022/05/11 01:58:07;;;;;;;12.57;7.72;;;13.50;99.90;;;;;;5024922;28;20246;-80
2022/05/11 02:00:34;;;;;;;13.32;7.53;;;13.40;99.90;;;;;;5007086;28;20087;-79
2022/05/11 02:02:59;;;;;;;14.45;6.22;;;13.40;99.90;;;;;;5007819;28;20453;-80
2022/05/11 02:08:09;;;;;;;11.32;6.07;;;13.40;99.90;;;;;;5006927;28;20053;-80
2022/05/11 02:10:36;;;;;;;12.73;6.22;;;13.40;99.90;;;;;;5007265;28;20057;-79
2022/05/11 02:13:01;;;;;;;7.82;6.47;;;13.40;99.90;;;;;;5024808;28;20041;-80
2022/05/11 02:15:27;;;;;;;7.80;4.95;;;13.40;99.90;;;;;;5025197;28;20128;-79
2022/05/11 02:17:53;;;;;;;8.32;5.65;;;13.40;99.90;;;;;;5024874;28;20068;-79
2022/05/11 02:20:20;;;;;;;10.15;5.30;;;13.40;99.90;;;;;;5023773;28;20046;-79
2022/05/11 02:22:46;;;;;;;10.68;5.63;;;13.40;99.90;;;;;;5024094;28;20094;-79
2022/05/11 02:25:14;;;;;;;8.10;5.63;;;13.40;99.90;;;;;;5024158;28;20253;-80
2022/05/11 02:27:39;;;;;;;11.13;4.95;;;13.40;99.90;;;;;;5025062;28;20042;-79
2022/05/11 02:30:09;;;;;;;8.93;5.60;;;13.40;99.90;;;;;;5024584;28;20548;-79
2022/05/11 02:32:35;;;;;;;7.18;5.20;;;13.30;99.90;;;;;;5025143;28;20065;-79
2022/05/11 02:35:12;;;;;;;15.57;4.65;;;13.30;99.90;;;;;;5022768;28;20408;-80
2022/05/11 02:37:46;;;;;;;12.38;4.88;;;13.30;99.90;;;;;;5039928;28;20124;-79
2022/05/11 02:40:14;;;;;;;13.35;4.43;;;13.30;99.90;;;;;;5023985;28;20052;-79
2022/05/11 02:42:40;;;;;;;11.30;5.80;;;13.30;99.90;;;;;;5024876;28;20146;-80
2022/05/11 02:45:06;;;;;;;10.20;5.45;;;13.30;99.90;;;;;;5024518;28;20411;-79
2022/05/11 02:47:32;;;;;;;5.82;4.82;;;13.30;99.90;;;;;;5005796;28;20279;-79
2022/05/11 02:49:57;;;;;;;8.48;4.47;;;13.30;99.90;;;;;;5006145;28;20060;-79
2022/05/11 02:52:26;;;;;;;7.68;5.00;;;13.30;99.90;;;;;;5024122;28;20511;-79
2022/05/11 02:54:51;;;;;;;13.27;4.82;;;13.30;99.90;;;;;;5025109;28;20045;-79
2022/05/11 02:57:17;;;;;;;6.65;3.88;;;13.30;99.90;;;;;;5026864;28;20038;-79
2022/05/11 02:59:44;;;;;;;14.68;4.97;;;13.30;99.90;;;;;;5028388;28;20072;-79
2022/05/11 03:02:09;;;;;;;6.90;4.60;;;13.30;99.90;;;;;;5028303;28;20270;-79
2022/05/11 03:04:35;;;;;;;4.93;2.85;;;13.30;99.90;;;;;;5027258;28;20441;-79
2022/05/11 03:07:01;;;;;;;7.38;4.72;;;13.30;99.90;;;;;;5028296;28;20045;-80
2022/05/11 03:09:27;;;;;;;4.50;3.63;;;13.30;99.90;;;;;;5027807;28;20098;-79
2022/05/11 03:11:52;;;;;;;7.70;4.90;;;13.30;99.90;;;;;;5027181;28;20399;-79
2022/05/11 03:14:18;;;;;;;6.72;4.07;;;13.30;99.90;;;;;;5010071;28;20472;-79
2022/05/11 03:16:43;;;;;;;10.18;4.30;;;13.30;99.90;;;;;;5028472;28;20088;-79
2022/05/11 03:19:10;;;;;;;6.15;3.63;;;13.30;99.90;;;;;;5027991;28;20041;-79
2022/05/11 03:21:35;;;;;;;11.27;4.13;;;13.30;99.90;;;;;;5027561;28;20049;-79
2022/05/11 03:24:01;;;;;;;4.97;3.40;;;13.30;99.90;;;;;;5026890;28;20099;-80
2022/05/11 03:26:27;;;;;;;8.80;3.15;;;13.30;99.90;;;;;;5010388;28;20042;-79
2022/05/11 03:28:52;;;;;;;6.82;4.00;;;13.30;99.90;;;;;;5028450;28;20046;-79
2022/05/11 03:31:18;;;;;;;6.05;3.42;;;13.30;99.90;;;;;;5026896;28;20092;-79
2022/05/11 03:36:29;;;;;;;5.95;3.83;;;13.30;99.90;;;;;;5009070;28;20059;-79
2022/05/11 03:38:54;;;;;;;7.07;4.38;;;13.30;99.90;;;;;;5028278;28;20128;-79
2022/05/11 03:41:20;;;;;;;11.32;4.13;;;13.30;99.90;;;;;;5027272;28;20141;-80
2022/05/11 03:43:46;;;;;;;14.18;4.85;;;13.30;99.90;;;;;;5027895;28;20104;-79
2022/05/11 03:46:11;;;;;;;7.57;3.88;;;13.30;99.90;;;;;;5026665;28;20049;-79
2022/05/11 03:48:37;;;;;;;7.22;3.85;;;13.30;99.90;;;;;;5027373;28;20458;-79
2022/05/11 03:51:04;;;;;;;5.35;4.53;;;13.30;99.90;;;;;;5008634;28;20373;-80
2022/05/11 03:53:32;;;;;;;11.13;4.15;;;13.30;99.90;;;;;;5010662;28;20152;-79
2022/05/11 03:55:58;;;;;;;10.20;3.15;;;13.30;99.90;;;;;;5010325;28;20037;-79
2022/05/11 03:58:24;;;;;;;6.70;3.20;;;13.20;99.90;;;;;;5027067;28;20100;-79
2022/05/11 04:00:50;;;;;;;7.82;4.38;;;13.30;99.90;;;;;;5009651;28;20132;-79
2022/05/11 04:03:15;;;;;;;4.15;3.17;;;13.20;99.90;;;;;;5009027;28;20079;-79
2022/05/11 04:05:41;;;;;;;5.00;4.18;;;13.30;99.90;;;;;;5026306;28;20049;-80
2022/05/11 04:08:06;;;;;;;5.25;3.95;;;13.20;99.90;;;;;;5025895;28;20354;-80
2022/05/11 04:10:32;;;;;;;6.15;3.65;;;13.20;99.90;;;;;;5027115;28;20046;-79
2022/05/11 04:13:00;;;;;;;6.63;4.95;;;13.20;99.90;;;;;;5027209;28;20495;-79
2022/05/11 04:15:25;;;;;;;11.27;3.60;;;13.20;99.90;;;;;;5027049;28;20045;-79
2022/05/11 04:17:51;;;;;;;6.07;3.78;;;13.20;99.90;;;;;;5009105;28;20403;-79
2022/05/11 04:20:18;;;;;;;5.55;4.22;;;13.20;99.90;;;;;;5025365;28;20056;-80
2022/05/11 04:22:44;;;;;;;9.23;4.35;;;13.20;99.90;;;;;;5027090;28;20041;-80
2022/05/11 04:25:14;;;;;;;4.65;4.10;;;13.20;99.90;;;;;;5027165;28;20041;-80
2022/05/11 04:27:40;;;;;;;10.70;4.30;;;13.20;99.90;;;;;;5026758;28;20045;-79
2022/05/11 04:30:07;;;;;;;4.05;3.50;;;13.30;99.90;;;;;;5026138;28;20034;-79
2022/05/11 04:32:33;;;;;;;6.47;3.95;;;13.30;99.90;;;;;;5026844;28;20246;-79
2022/05/11 04:34:58;;;;;;;4.20;3.38;;;13.30;99.90;;;;;;5026447;28;20049;-79
2022/05/11 04:37:24;;;;;;;4.85;3.05;;;13.30;99.90;;;;;;5026392;28;20396;-79
2022/05/11 04:39:50;;;;;;;7.18;3.72;;;13.30;99.90;;;;;;5008727;28;20091;-79
2022/05/11 04:42:16;;;;;;;14.23;4.00;;;13.30;99.90;;;;;;5026257;28;20088;-80
2022/05/11 04:44:42;;;;;;;10.52;4.68;;;13.30;99.90;;;;;;5026298;28;20061;-79
2022/05/11 04:47:13;;;;;;;12.80;3.42;;;13.30;99.90;;;;;;5026172;28;20041;-79
2022/05/11 04:49:40;;;;;;;4.27;3.50;;;13.30;99.90;;;;;;5025468;28;20064;-80
2022/05/11 04:52:09;;;;;;;3.67;3.22;;;13.30;99.90;;;;;;5026330;28;20431;-80
2022/05/11 04:54:40;;;;;;;12.15;4.38;;;13.40;99.90;;;;;;5026556;28;20089;-79
2022/05/11 04:57:06;;;;;;;8.70;3.60;;;13.30;99.90;;;;;;5008715;28;20037;-80
2022/05/11 04:59:32;;;;;;;4.65;3.00;;;13.40;99.90;;;;;;5025997;28;20048;-80
2022/05/11 05:01:59;;;;;;;5.13;3.17;;;13.40;99.90;;;;;;5026578;28;20033;-79
2022/05/11 05:04:26;;;;;;;10.80;3.88;;;13.40;99.90;;;;;;5024802;28;20406;-80
2022/05/11 05:06:52;;;;;;;6.47;3.05;;;13.40;99.90;;;;;;5026269;28;20049;-79
2022/05/11 05:09:17;;;;;;;5.95;3.55;;;13.40;99.90;;;;;;5025834;28;20075;-80
2022/05/11 05:11:43;;;;;;;3.65;3.08;;;13.50;99.90;;;;;;5008485;28;20049;-80
2022/05/11 05:14:08;;;;;;;9.35;3.60;;;13.40;99.90;;;;;;5025690;28;20088;-80
2022/05/11 05:16:34;;;;;;;5.15;3.10;;;13.50;99.90;;;;;;5026319;28;20081;-80
2022/05/11 05:19:01;;;;;;;5.13;2.83;;;13.50;99.90;;;;;;5026119;28;20491;-79
2022/05/11 05:21:27;;;;;;;8.05;4.57;;;13.50;99.90;;;;;;5024519;28;20045;-80
2022/05/11 05:23:52;;;;;;;6.35;3.42;;;13.50;99.90;;;;;;5025995;28;20408;-80
2022/05/11 05:26:18;;;;;;;4.55;3.03;;;13.50;99.90;;;;;;5024862;28;20400;-80
2022/05/11 05:31:30;;;;;;;5.03;3.53;;;13.50;99.90;;;;;;5011421;28;20107;-80
2022/05/11 05:33:59;;;;;;;7.15;3.30;;;13.60;99.90;;;;;;5008372;28;20084;-80
2022/05/11 05:36:30;;;;;;;10.88;4.53;;;13.60;99.90;;;;;;5007141;28;20042;-79
2022/05/11 05:38:58;;;;;;;6.82;3.25;;;13.60;99.90;;;;;;5024987;28;20116;-79
2022/05/11 05:41:25;;;;;;;10.35;2.50;;;13.60;99.90;;;;;;5007236;28;20045;-79
2022/05/11 05:43:51;;;;;;;12.38;3.00;;;13.60;99.90;;;;;;5025000;28;20712;-80
2022/05/11 05:46:17;;;;;;;8.93;2.88;;;13.70;99.90;;;;;;5007665;28;20037;-78
2022/05/11 05:48:43;;;;;;;20.95;3.65;;;13.70;99.90;;;;;;5025225;28;20042;-79
2022/05/11 05:51:12;;;;;;;5.03;2.70;;;13.70;99.90;;;;;;5024161;28;20047;-82
2022/05/11 05:53:40;;;;;;;5.63;3.85;;;13.70;99.90;;;;;;5025499;28;20048;-80
2022/05/11 05:56:06;;;;;;;2.13;1.88;;;13.70;99.90;;;;;;5025066;28;20073;-80
2022/05/11 05:58:33;;;;;;;2.80;2.50;;;13.70;99.90;;;;;;5023602;28;20111;-78
2022/05/11 06:00:59;;;;;;;7.10;2.50;;;13.80;99.90;;;;;;5020162;28;20034;-81
2022/05/11 06:03:27;;;;;;;12.25;2.95;;;13.80;99.90;;;;;;5034728;28;20415;-80
2022/05/11 06:05:53;;;;;;;4.00;2.47;;;13.80;99.90;;;;;;5023003;28;20053;-80
2022/05/11 06:08:19;;;;;;;7.13;2.22;;;13.80;99.90;;;;;;5023797;28;20483;-81
2022/05/11 06:10:46;;;;;;;7.30;3.17;;;13.80;99.90;;;;;;5006683;28;20040;-79
2022/05/11 06:13:14;;;;;;;8.77;2.72;;;13.90;99.90;;;;;;5023577;28;20065;-80
2022/05/11 06:15:41;;;;;;;9.50;3.30;;;13.90;99.90;;;;;;5005819;28;20034;-81
2022/05/11 06:18:07;;;;;;;8.35;2.58;;;13.90;99.90;;;;;;5001182;28;20096;-81
2022/05/11 06:20:34;;;;;;;8.73;3.17;;;13.90;99.90;;;;;;5020970;28;20353;-80
2022/05/11 06:23:01;;;;;;;4.03;2.65;;;13.90;99.90;;;;;;5007755;28;20046;-79
2022/05/11 06:25:27;;;;;;;4.10;2.53;;;13.90;99.90;;;;;;5017918;28;20088;-81
2022/05/11 06:27:53;;;;;;;4.47;2.60;;;13.90;99.90;;;;;;5002216;28;20076;-80
2022/05/11 06:30:18;;;;;;;10.70;2.70;;;14.00;99.90;;;;;;5022690;28;20500;-79
2022/05/11 06:32:44;;;;;;;5.18;3.40;;;13.90;99.90;;;;;;5019761;28;20473;-80
2022/05/11 06:35:09;;;;;;;2.30;1.95;;;14.00;99.90;;;;;;5007704;28;20052;-80
2022/05/11 06:37:40;;;;;;;4.63;1.73;;;14.00;99.90;;;;;;5023339;28;20037;-80
2022/05/11 06:40:06;;;;;;;7.68;2.75;;;14.00;99.90;;;;;;5006115;28;20365;-80
2022/05/11 06:42:32;;;;;;;3.05;2.00;;;14.00;99.90;;;;;;5006410;28;20124;-80
2022/05/11 06:44:59;;;;;;;4.97;2.30;;;14.00;99.90;;;;;;5024786;28;20117;-80
2022/05/11 06:47:24;;;;;;;9.25;2.65;;;14.10;99.90;;;;;;5013702;28;20067;-80
2022/05/11 06:49:50;;;;;;;7.10;2.55;;;14.10;99.90;;;;;;5005124;28;20861;-80
2022/05/11 06:52:17;;;;;;;2.75;2.10;;;14.10;99.90;;;;;;5006638;28;20046;-80
2022/05/11 07:00:12;;;;;;;7.93;2.10;;;14.20;99.90;;;;;;5024131;28;20050;-80
2022/05/11 07:02:39;;;;;;;8.45;2.80;;;14.20;99.90;;;;;;5006053;28;20084;-80
2022/05/11 07:05:06;;;;;;;6.25;3.40;;;14.30;99.90;;;;;;5022827;28;20276;-80
2022/05/11 07:07:32;;;;;;;3.00;1.77;;;14.30;99.90;;;;;;4989962;28;20049;-79
2022/05/11 07:09:57;;;;;;;7.85;2.40;;;14.40;99.90;;;;;;5024006;28;20044;-80
2022/05/11 07:12:32;;;;;;;5.28;2.13;;;14.40;99.90;;;;;;5023968;28;20045;-80
2022/05/11 07:14:59;;;;;;;4.82;2.10;;;14.40;99.90;;;;;;5023979;28;20038;-79
2022/05/11 07:17:38;;;;;;;6.63;2.40;;;14.40;99.90;;;;;;5023661;28;20041;-79
2022/05/11 07:20:09;;;;;;;3.35;1.63;;;14.40;99.90;;;;;;5002797;28;20041;-79
2022/05/11 07:22:35;;;;;;;5.25;1.67;;;14.40;99.90;;;;;;5022673;28;20583;-80
2022/05/11 07:25:01;;;;;;;2.65;2.00;;;14.50;99.90;;;;;;5027892;28;20037;-80
2022/05/11 07:27:27;;;;;;;5.28;1.65;;;14.50;99.90;;;;;;5023180;28;20042;-79
2022/05/11 07:29:54;;;;;;;1.70;1.45;;;14.50;99.90;;;;;;5006314;28;20545;-80
2022/05/11 07:32:21;;;;;;;3.13;2.15;;;14.50;99.90;;;;;;5022734;28;20064;-80
2022/05/11 07:34:46;;;;;;;5.63;2.75;;;14.50;99.90;;;;;;5023386;28;20069;-80
2022/05/11 07:37:13;;;;;;;5.60;2.45;;;14.50;99.90;;;;;;5005700;28;20088;-79
2022/05/11 07:39:39;;;;;;;2.45;1.45;;;14.60;99.90;;;;;;5023377;28;20476;-80
2022/05/11 07:42:05;;;;;;;1.85;1.63;;;14.60;99.90;;;;;;5023284;28;20030;-80
2022/05/11 07:44:31;;;;;;;5.10;1.80;;;14.70;99.90;;;;;;5007716;28;20046;-80
2022/05/11 07:46:56;;;;;;;4.53;2.40;;;14.60;99.90;;;;;;5027204;28;20121;-80
2022/05/11 07:49:22;;;;;;;2.63;1.40;;;14.70;99.90;;;;;;5025544;28;20029;-79
2022/05/11 07:51:49;;;;;;;3.63;1.85;;;14.70;99.90;;;;;;5022925;28;20154;-79
2022/05/11 07:54:16;;;;;;;7.95;2.67;;;14.70;99.90;;;;;;5024492;28;20064;-80
2022/05/11 08:02:10;;;;;;;3.78;2.13;;;14.90;99.90;;;;;;5008942;28;20061;-80
2022/05/11 08:04:36;;;;;;;4.72;2.25;;;14.80;99.90;;;;;;5008300;28;20495;-80
2022/05/11 08:07:02;;;;;;;5.05;2.05;;;14.90;99.90;;;;;;5026496;28;20439;-80
2022/05/11 08:09:28;;;;;;;3.28;1.58;;;14.90;99.90;;;;;;5026040;28;20256;-80
2022/05/11 08:11:55;;;;;;;12.38;3.33;;;14.90;99.90;;;;;;5024511;28;20557;-80
2022/05/11 08:14:21;;;;;;;15.68;2.78;;;14.90;99.90;;;;;;5026008;28;20163;-80
2022/05/11 08:16:52;;;;;;;1.85;1.63;;;14.90;99.90;;;;;;5007838;28;20034;-79
2022/05/11 08:19:18;;;;;;;4.13;2.60;;;15.00;99.90;;;;;;5025277;28;20103;-79
2022/05/11 08:21:44;;;;;;;8.73;1.92;;;15.00;99.90;;;;;;5008380;28;20120;-79
2022/05/11 08:24:10;;;;;;;10.60;3.00;;;15.00;99.90;;;;;;5026132;28;20112;-80
2022/05/11 08:26:36;;;;;;;3.80;2.00;;;15.10;99.90;;;;;;5023817;28;20330;-79
2022/05/11 08:29:02;;;;;;;3.72;2.00;;;15.20;99.90;;;;;;4992215;28;20380;-77
2022/05/11 08:34:11;;;;;;;7.65;2.42;;;15.30;99.90;;;;;;4991165;28;20076;-78
2022/05/11 08:36:37;;;;;;;4.15;1.98;;;15.40;99.90;;;;;;5026183;28;20033;-83
2022/05/11 08:39:04;;;;;;;3.60;1.95;;;15.40;99.90;;;;;;5025710;28;20034;-80
2022/05/11 08:41:33;;;;;;;7.13;2.08;;;15.40;99.90;;;;;;5026320;28;20069;-79
2022/05/11 08:44:13;;;;;;;5.10;2.08;;;15.50;99.90;;;;;;5026902;28;20050;-79
2022/05/11 08:46:43;;;;;;;8.27;1.98;;;15.50;99.90;;;;;;5015678;28;20088;-79
2022/05/11 08:49:21;;;;;;;3.28;1.40;;;15.50;99.90;;;;;;5005075;28;20117;-79
2022/05/11 08:52:02;;;;;;;3.17;1.50;;;15.50;99.90;;;;;;5007833;28;20042;-79
2022/05/11 08:54:40;;;;;;;4.15;2.35;;;15.60;99.90;;;;;;5006157;28;20396;-81
2022/05/11 08:57:11;;;;;;;4.00;1.48;;;15.60;99.90;;;;;;5019724;28;20305;-80
2022/05/11 08:59:37;;;;;;;6.72;2.05;;;15.70;99.90;;;;;;5024454;28;20033;-80
2022/05/11 09:02:05;;;;;;;5.38;2.28;;;15.80;99.90;;;;;;4990340;28;20046;-80
2022/05/11 09:04:40;;;;;;;6.80;2.33;;;15.80;99.90;;;;;;5024415;28;20060;-79
2022/05/11 09:07:09;;;;;;;2.67;1.58;;;15.80;99.90;;;;;;5007198;28;20053;-79
2022/05/11 09:09:35;;;;;;;1.73;1.00;;;15.80;99.90;;;;;;5024340;28;20041;-81
2022/05/11 09:12:01;;;;;;;10.50;2.15;;;15.80;99.90;;;;;;5024152;28;20496;-79
2022/05/11 09:14:42;;;;;;;2.67;1.42;;;15.80;99.90;;;;;;5024597;28;20309;-79
2022/05/11 09:17:26;;;;;;;2.75;1.58;;;15.80;99.90;;;;;;5007154;28;20061;-79
2022/05/11 09:20:21;;;;;;;9.32;1.55;;;15.80;99.90;;;;;;5023838;28;20037;-79
2022/05/11 09:22:52;;;;;;;0.52;0.52;;;15.80;99.90;;;;;;5022999;28;20053;-80
2022/05/11 09:25:24;;;;;;;10.38;1.40;;;15.80;99.90;;;;;;5025026;28;20048;-80
2022/05/11 09:27:51;;;;;;;15.07;1.73;;;15.80;99.90;;;;;;5025097;28;20049;-80
2022/05/11 09:30:27;;;;;;;3.65;1.30;;;15.90;99.90;;;;;;5024767;28;20079;-79
2022/05/11 09:33:14;;;;;;;3.00;1.45;;;15.90;99.90;;;;;;5024192;28;20033;-79
2022/05/11 09:35:40;;;;;;;1.38;1.27;;;15.90;99.90;;;;;;5021733;28;20052;-79
2022/05/11 09:38:16;;;;;;;1.20;1.10;;;15.90;99.90;;;;;;5023264;28;20052;-80
2022/05/11 09:41:17;;;;;;;5.82;1.90;;;15.90;99.90;;;;;;5003220;28;20526;-79
2022/05/11 09:43:46;;;;;;;5.05;2.13;;;16.00;99.90;;;;;;5020353;28;20530;-80
2022/05/11 09:46:21;;;;;;;8.00;2.05;;;16.10;99.90;;;;;;5022967;28;20495;-80
2022/05/11 09:49:00;;;;;;;6.93;1.10;;;16.10;99.90;;;;;;5021136;28;20049;-81
2022/05/11 09:51:38;;;;;;;3.13;1.35;;;16.20;99.90;;;;;;5021171;28;20036;-80
2022/05/11 09:54:29;;;;;;;4.78;1.30;;;16.20;99.90;;;;;;5021286;28;20081;-79
2022/05/11 09:56:56;;;;;;;2.00;1.80;;;16.30;99.90;;;;;;5022830;28;20045;-80
2022/05/11 09:59:37;;;;;;;2.95;1.30;;;16.40;99.90;;;;;;5019856;28;20399;-80
2022/05/11 10:02:30;;;;;;;7.07;2.15;;;16.40;99.90;;;;;;4998571;28;20111;-81
2022/05/11 10:05:02;;;;;;;2.17;1.52;;;16.40;99.90;;;;;;5017723;28;20068;-75
2022/05/11 10:07:33;;;;;;;1.52;1.38;;;16.50;99.90;;;;;;5006630;28;20045;-75
2022/05/11 10:10:16;;;;;;;2.55;1.23;;;16.50;99.90;;;;;;5025527;28;20171;-76
2022/05/11 10:12:43;;;;;;;1.23;1.00;;;16.60;99.90;;;;;;5024738;28;20043;-74
2022/05/11 10:24:16;;;;;;;1.35;0.93;;;16.80;99.90;;;;;;4987240;28;20054;-75
2022/05/11 10:26:49;;;;;;;3.30;1.48;;;16.80;99.90;;;;;;5005116;28;20376;-75
2022/05/11 10:29:36;;;;;;;2.65;1.75;;;16.80;99.90;;;;;;5023323;28;20484;-76
2022/05/11 10:32:20;;;;;;;4.38;1.55;;;16.80;99.90;;;;;;5007789;28;20041;-75
2022/05/11 10:35:09;;;;;;;2.75;1.10;;;16.80;99.90;;;;;;5006316;28;20064;-75
2022/05/11 10:37:57;;;;;;;8.95;2.38;;;16.90;99.90;;;;;;5006855;28;20053;-76
2022/05/11 10:40:45;;;;;;;4.07;1.30;;;16.90;99.90;;;;;;5024159;28;20046;-75
2022/05/11 10:43:19;;;;;;;4.32;1.10;;;16.90;99.90;;;;;;5006317;28;20063;-74
2022/05/11 10:45:57;;;;;;;2.25;1.02;;;16.90;99.90;;;;;;5004133;28;20888;-75
2022/05/11 10:48:48;;;;;;;3.70;1.55;;;16.90;99.90;;;;;;5018892;28;20441;-83
2022/05/11 10:51:24;;;;;;;1.15;1.10;;;16.90;99.90;;;;;;5020587;28;20514;-77
2022/05/11 10:54:25;;;;;;;6.80;1.83;;;16.90;99.90;;;;;;5024373;28;20030;-81
2022/05/11 10:57:10;;;;;;;6.57;1.80;;;17.00;99.90;;;;;;4993059;28;20141;-81
2022/05/11 10:59:47;;;;;;;1.83;1.23;;;17.00;99.90;;;;;;5012104;28;20054;-82
2022/05/11 11:02:41;;;;;;;1.58;0.98;;;17.00;99.90;;;;;;5012647;28;20068;-80
2022/05/11 11:05:27;;;;;;;6.53;1.42;;;17.00;99.90;;;;;;5002049;28;20097;-82
2022/05/11 11:08:10;;;;;;;5.03;1.17;;;17.00;99.90;;;;;;5001178;28;20053;-81
2022/05/11 11:10:51;;;;;;;3.55;1.15;;;17.00;99.90;;;;;;5000531;28;20046;-76
2022/05/11 11:13:59;;;;;;;7.38;1.90;;;17.00;99.90;;;;;;4996274;28;20370;-75
2022/05/11 11:16:30;;;;;;;3.80;1.55;;;17.00;99.90;;;;;;4999793;28;20061;-80
2022/05/11 11:18:57;;;;;;;9.35;1.70;;;17.20;99.90;;;;;;4999527;28;20400;-77
2022/05/11 11:21:23;;;;;;;3.22;1.40;;;17.30;99.90;;;;;;4995902;28;20088;-81
2022/05/11 11:24:11;;;;;;;3.70;1.55;;;17.30;99.90;;;;;;5004338;28;20038;-81
2022/05/11 11:26:48;;;;;;;8.50;1.80;;;17.30;99.90;;;;;;5006956;28;20124;-82
2022/05/11 11:29:14;;;;;;;2.22;1.10;;;17.30;99.90;;;;;;5003930;28;20061;-80
2022/05/11 11:32:11;;;;;;;2.83;1.17;;;17.40;99.90;;;;;;5032807;28;20396;-80
2022/05/11 11:34:48;;;;;;;7.00;1.38;;;17.40;99.90;;;;;;4984498;28;20054;-80
2022/05/11 11:37:32;;;;;;;4.20;1.85;;;17.50;99.90;;;;;;4999090;28;20064;-85
2022/05/11 11:40:13;;;;;;;1.60;1.15;;;17.50;99.90;;;;;;5003396;28;20045;-82
2022/05/11 11:42:45;;;;;;;8.70;2.08;;;17.40;99.90;;;;;;5006219;28;20046;-76
2022/05/11 11:45:31;;;;;;;;;;;17.40;99.90;;;;;;5023008;28;20046;-77
2022/05/11 11:48:03;;;;;;;1.17;1.10;;;17.30;99.90;;;;;;5000139;28;19952;-78
2022/05/11 11:50:59;;;;;;;4.28;1.77;;;17.30;99.90;;;;;;5006871;28;20058;-82
2022/05/11 11:53:49;;;;;;;11.05;2.25;;;17.30;99.90;;;;;;5007248;28;20489;-76
2022/05/11 11:56:23;;;;;;;5.00;1.58;;;17.20;99.90;;;;;;5005447;28;20172;-75
2022/05/11 11:59:22;;;;;;;3.30;1.85;;;17.20;99.90;;;;;;5007038;28;20398;-76
2022/05/11 12:01:49;;;;;;;2.65;1.50;;;17.20;99.90;;;;;;5006030;28;20042;-76
2022/05/11 12:04:40;;;;;;;4.50;1.95;;;17.20;99.90;;;;;;5008241;28;20041;-76
2022/05/11 12:15:34;;;;;;;8.05;2.08;;;17.10;99.90;;;;;;5015670;28;20551;-76
2022/05/11 12:18:24;;;;;;;2.10;1.88;;;17.00;99.90;;;;;;5023279;28;20045;-80
2022/05/11 12:20:50;;;;;;;9.52;2.13;;;17.00;99.90;;;;;;5006991;28;20033;-78
2022/05/11 12:23:29;;;;;;;1.42;1.25;;;17.00;99.90;;;;;;5025964;28;20076;-77
2022/05/11 12:26:06;;;;;;;2.20;1.90;;;17.10;99.90;;;;;;5026163;28;20515;-77
2022/05/11 12:28:41;;;;;;;8.15;2.90;;;17.10;99.90;;;;;;5005644;28;20045;-76
2022/05/11 12:31:07;;;;;;;4.30;2.30;;;17.10;99.90;;;;;;5007476;28;20120;-76
2022/05/11 12:33:42;;;;;;;4.18;2.53;;;17.10;99.90;;;;;;5022772;28;20053;-76
2022/05/11 12:36:08;;;;;;;8.73;2.55;;;17.10;99.90;;;;;;5019058;28;20084;-76
2022/05/11 12:38:40;;;;;;;6.20;1.42;;;17.10;99.90;;;;;;5001767;28;20076;-85
2022/05/11 12:41:19;;;;;;;6.63;1.85;;;17.10;99.90;;;;;;5017376;28;20095;-77
2022/05/11 12:43:59;;;;;;;2.30;2.08;;;17.10;99.90;;;;;;5020309;28;20080;-83
2022/05/11 12:46:26;;;;;;;3.92;1.92;;;17.10;99.90;;;;;;5025119;28;20041;-77
2022/05/11 12:49:00;;;;;;;7.60;1.80;;;17.10;99.90;;;;;;5021621;28;20099;-83
2022/05/11 12:51:34;;;;;;;3.45;1.67;;;17.10;99.90;;;;;;5029510;28;20049;-80
2022/05/11 12:54:04;;;;;;;5.32;1.75;;;17.00;99.90;;;;;;5026311;28;20080;-83
2022/05/11 12:56:38;;;;;;;6.68;2.22;;;17.10;99.90;;;;;;5025953;28;20033;-75
2022/05/11 12:59:17;;;;;;;5.80;1.75;;;17.10;99.90;;;;;;5022810;28;20041;-75
2022/05/11 13:01:43;;;;;;;4.53;2.42;;;17.10;99.90;;;;;;5015134;28;20088;-77
2022/05/11 13:04:22;;;;;;;5.82;1.60;;;17.20;99.90;;;;;;5024363;28;20558;-76
2022/05/11 13:06:52;;;;;;;3.72;2.30;;;17.20;99.90;;;;;;5008316;28;20119;-75
2022/05/11 13:09:27;;;;;;;7.65;2.50;;;17.30;99.90;;;;;;5003670;28;20046;-79
2022/05/11 13:11:53;;;;;;;5.40;2.35;;;17.30;99.90;;;;;;5021339;28;20052;-78
2022/05/11 13:14:31;;;;;;;5.88;2.65;;;17.30;99.90;;;;;;5022882;28;20084;-76
2022/05/11 13:17:01;;;;;;;4.68;1.98;;;17.40;99.90;;;;;;5025539;28;20046;-76
2022/05/11 13:19:32;;;;;;;7.47;2.40;;;17.50;99.90;;;;;;5006557;28;20700;-76
2022/05/11 13:22:00;;;;;;;5.53;2.03;;;17.60;99.90;;;;;;5008237;28;20068;-76
2022/05/11 13:24:44;;;;;;;3.95;2.10;;;17.60;99.90;;;;;;5025151;28;20408;-76
2022/05/11 13:27:39;;;;;;;2.10;1.38;;;17.60;99.90;;;;;;5007469;28;20042;-76
2022/05/11 13:30:16;;;;;;;2.17;1.30;;;17.60;99.90;;;;;;5006948;28;20072;-76
2022/05/11 13:32:53;;;;;;;8.68;1.90;;;17.60;99.90;;;;;;5006243;28;20068;-75
2022/05/11 13:35:27;;;;;;;2.50;2.10;;;17.50;99.90;;;;;;5024731;28;20143;-76
2022/05/11 13:38:08;;;;;;;3.63;2.03;;;17.60;99.90;;;;;;5007545;28;20049;-76
2022/05/11 13:40:41;;;;;;;4.63;1.63;;;17.60;99.90;;;;;;5006003;28;20124;-75
2022/05/11 13:43:20;;;;;;;4.07;2.38;;;17.60;99.90;;;;;;5025335;28;20044;-78
2022/05/11 13:46:05;;;;;;;5.55;1.70;;;17.50;99.90;;;;;;5024970;28;20084;-77
2022/05/11 13:48:41;;;;;;;3.10;1.65;;;17.60;99.90;;;;;;5024128;28;20068;-77